createdAt,value
2023-05-06T00:00:22.374Z,6.53
2023-05-06T00:02:50.765Z,6.40
2023-05-06T00:05:19.806Z,6.32
2023-05-06T00:07:49.578Z,6.75
2023-05-06T00:10:27.285Z,5.30
2023-05-06T00:12:55.723Z,6.35
2023-05-06T00:15:26.483Z,6.43
2023-05-06T00:17:55.587Z,7.30
2023-05-06T00:20:26.377Z,6.22
2023-05-06T00:22:56.003Z,8.52
2023-05-06T00:25:24.426Z,6.07
2023-05-06T00:27:52.713Z,7.05
2023-05-06T00:30:21.125Z,6.50
2023-05-06T00:32:54.430Z,7.05
2023-05-06T00:35:22.986Z,7.50
2023-05-06T00:37:57.954Z,7.28
2023-05-06T00:40:32.507Z,6.57
2023-05-06T00:43:00.956Z,7.15
2023-05-06T00:45:29.775Z,7.28
2023-05-06T00:47:58.842Z,8.25
2023-05-06T00:50:29.913Z,6.85
2023-05-06T00:52:58.835Z,8.10
2023-05-06T00:55:31.584Z,7.45
2023-05-06T00:58:00.930Z,6.72
2023-05-06T01:00:29.681Z,7.22
2023-05-06T01:02:58.789Z,10.07
2023-05-06T01:05:30.878Z,7.10
2023-05-06T01:08:04.790Z,7.15
2023-05-06T01:10:41.833Z,6.90
2023-05-06T01:13:14.067Z,8.13
2023-05-06T01:15:44.394Z,8.35
2023-05-06T01:18:16.065Z,8.80
2023-05-06T01:20:45.751Z,7.35
2023-05-06T01:23:15.611Z,7.93
2023-05-06T01:25:46.186Z,9.60
2023-05-06T01:28:14.877Z,7.47
2023-05-06T01:30:48.188Z,9.27
2023-05-06T01:33:23.175Z,9.63
2023-05-06T01:35:56.081Z,7.50
2023-05-06T01:38:31.656Z,10.70
2023-05-06T01:41:04.790Z,8.38
2023-05-06T01:43:35.322Z,8.15
2023-05-06T01:46:04.764Z,8.40
2023-05-06T01:48:38.325Z,8.80
2023-05-06T01:51:09.231Z,6.70
2023-05-06T01:53:38.862Z,8.15
2023-05-06T01:56:07.800Z,7.75
2023-05-06T01:58:38.559Z,7.47
2023-05-06T02:01:07.154Z,7.85
2023-05-06T02:03:38.343Z,8.02
2023-05-06T02:06:06.758Z,8.25
2023-05-06T02:08:41.064Z,9.13
2023-05-06T02:11:14.307Z,7.07
2023-05-06T02:13:43.575Z,9.15
2023-05-06T02:16:14.837Z,10.70
2023-05-06T02:18:43.685Z,7.28
2023-05-06T02:21:12.884Z,8.55
2023-05-06T02:23:44.809Z,7.32
2023-05-06T02:26:13.191Z,9.23
2023-05-06T02:28:41.668Z,9.20
2023-05-06T02:31:19.500Z,7.70
2023-05-06T02:33:49.060Z,8.23
2023-05-06T02:36:19.781Z,9.10
2023-05-06T02:38:52.367Z,8.40
2023-05-06T02:41:20.711Z,8.10
2023-05-06T02:43:48.986Z,7.60
2023-05-06T02:46:17.392Z,8.38
2023-05-06T02:48:49.422Z,9.13
2023-05-06T02:51:17.691Z,8.18
2023-05-06T02:53:46.112Z,9.25
2023-05-06T02:56:15.875Z,9.70
2023-05-06T02:58:44.251Z,9.60
2023-05-06T03:01:14.928Z,7.70
2023-05-06T03:03:43.471Z,9.60
2023-05-06T03:06:14.306Z,7.78
2023-05-06T03:08:45.076Z,8.25
2023-05-06T03:11:13.456Z,8.43
2023-05-06T03:13:43.192Z,8.38
2023-05-06T03:16:14.484Z,8.05
2023-05-06T03:18:48.729Z,8.63
2023-05-06T03:21:17.785Z,9.27
2023-05-06T03:23:52.641Z,8.18
2023-05-06T03:26:26.389Z,10.40
2023-05-06T03:28:56.329Z,9.20
2023-05-06T03:31:24.683Z,9.48
2023-05-06T03:33:53.371Z,9.57
2023-05-06T03:36:23.909Z,9.98
2023-05-06T03:38:56.280Z,8.57
2023-05-06T03:41:26.136Z,8.73
2023-05-06T03:43:58.729Z,8.75
2023-05-06T03:46:29.158Z,9.45
2023-05-06T03:48:58.667Z,7.90
2023-05-06T03:51:27.374Z,8.73
2023-05-06T03:54:04.929Z,8.18
2023-05-06T03:56:40.666Z,8.07
2023-05-06T03:59:10.536Z,10.00
2023-05-06T04:01:41.969Z,9.13
2023-05-06T04:04:11.877Z,7.57
2023-05-06T04:06:40.653Z,9.85
2023-05-06T04:09:09.760Z,9.13
2023-05-06T04:11:40.696Z,7.88
2023-05-06T04:14:13.252Z,9.60
2023-05-06T04:16:44.177Z,7.45
2023-05-06T04:19:17.964Z,8.07
2023-05-06T04:21:47.558Z,10.38
2023-05-06T04:24:16.953Z,8.18
2023-05-06T04:26:47.894Z,7.47
2023-05-06T04:29:17.964Z,7.88
2023-05-06T04:31:58.745Z,8.80
2023-05-06T04:34:29.391Z,8.85
2023-05-06T04:37:01.024Z,7.38
2023-05-06T04:39:47.312Z,8.15
2023-05-06T04:42:22.880Z,7.95
2023-05-06T04:45:05.685Z,8.18
2023-05-06T04:47:36.465Z,8.25
2023-05-06T04:50:05.423Z,7.97
2023-05-06T04:52:33.739Z,7.57
2023-05-06T04:55:04.437Z,6.60
2023-05-06T04:57:35.121Z,9.00
2023-05-06T05:00:07.113Z,9.23
2023-05-06T05:02:38.804Z,8.20
2023-05-06T05:05:08.329Z,8.20
2023-05-06T05:07:37.836Z,8.10
2023-05-06T05:10:09.412Z,8.90
2023-05-06T05:12:39.221Z,7.22
2023-05-06T05:15:10.071Z,8.10
2023-05-06T05:17:39.179Z,8.43
2023-05-06T05:20:08.985Z,8.23
2023-05-06T05:22:38.272Z,10.68
2023-05-06T05:25:08.302Z,8.23
2023-05-06T05:27:37.560Z,8.70
2023-05-06T05:30:08.583Z,8.15
2023-05-06T05:32:41.177Z,9.15
2023-05-06T05:35:17.110Z,9.20
2023-05-06T05:37:47.011Z,10.13
2023-05-06T05:40:15.818Z,10.45
2023-05-06T05:42:44.982Z,7.88
2023-05-06T05:45:22.635Z,9.15
2023-05-06T05:47:54.134Z,9.75
2023-05-06T05:50:23.802Z,8.98
2023-05-06T05:52:53.002Z,10.00
2023-05-06T05:55:25.213Z,8.00
2023-05-06T05:57:53.672Z,10.27
2023-05-06T06:00:23.272Z,10.35
2023-05-06T06:03:00.163Z,12.52
2023-05-06T06:05:31.213Z,11.13
2023-05-06T06:08:02.214Z,9.35
2023-05-06T06:10:32.450Z,9.13
2023-05-06T06:13:04.223Z,12.18
2023-05-06T06:15:34.458Z,9.15
2023-05-06T06:18:04.240Z,10.02
2023-05-06T06:20:41.832Z,10.80
2023-05-06T06:23:12.629Z,10.63
2023-05-06T06:25:41.023Z,11.25
2023-05-06T06:28:11.828Z,10.02
2023-05-06T06:30:43.147Z,12.68
2023-05-06T06:33:12.915Z,10.52
2023-05-06T06:35:41.790Z,10.63
2023-05-06T06:38:10.061Z,10.32
2023-05-06T06:40:38.440Z,12.38
2023-05-06T06:43:09.153Z,11.23
2023-05-06T06:45:57.208Z,10.50
2023-05-06T06:48:26.884Z,12.75
2023-05-06T06:50:55.474Z,15.57
2023-05-06T06:53:23.953Z,12.15
2023-05-06T06:55:56.822Z,11.07
2023-05-06T06:58:25.196Z,13.45
2023-05-06T07:00:53.443Z,13.95
2023-05-06T07:03:24.097Z,12.02
2023-05-06T07:05:53.759Z,11.77
2023-05-06T07:08:22.362Z,11.48
2023-05-06T07:10:50.736Z,13.88
2023-05-06T07:13:20.837Z,13.35
2023-05-06T07:15:51.644Z,16.65
2023-05-06T07:18:20.077Z,17.65
2023-05-06T07:20:48.400Z,12.60
2023-05-06T07:23:22.835Z,15.00
2023-05-06T07:25:51.195Z,11.93
2023-05-06T07:28:21.954Z,16.23
2023-05-06T07:30:52.712Z,15.32
2023-05-06T07:33:21.055Z,15.55
2023-05-06T07:35:54.074Z,14.70
2023-05-06T07:38:24.686Z,13.50
2023-05-06T07:40:53.011Z,13.15
2023-05-06T07:43:21.971Z,11.35
2023-05-06T07:45:52.821Z,15.95
2023-05-06T07:48:23.562Z,14.60
2023-05-06T07:50:52.038Z,15.57
2023-05-06T07:53:25.061Z,15.40
2023-05-06T07:56:02.242Z,13.23
2023-05-06T07:58:30.898Z,14.75
2023-05-06T08:00:59.956Z,14.88
2023-05-06T08:03:28.732Z,12.85
2023-05-06T08:05:57.394Z,13.98
2023-05-06T08:08:28.109Z,10.35
2023-05-06T08:10:59.934Z,13.32
2023-05-06T08:13:28.819Z,11.75
2023-05-06T08:16:02.986Z,10.57
2023-05-06T08:18:31.768Z,11.15
2023-05-06T08:21:00.129Z,14.35
2023-05-06T08:23:28.621Z,10.32
2023-05-06T08:25:59.155Z,11.10
2023-05-06T08:28:29.291Z,13.43
2023-05-06T08:30:57.693Z,12.10
2023-05-06T08:33:28.595Z,9.93
2023-05-06T08:35:57.578Z,10.50
2023-05-06T08:38:26.716Z,11.90
2023-05-06T08:40:58.134Z,11.57
2023-05-06T08:43:31.856Z,7.72
2023-05-06T08:46:02.726Z,10.15
2023-05-06T08:48:31.053Z,10.45
2023-05-06T08:51:01.537Z,10.55
2023-05-06T08:53:30.795Z,9.85
2023-05-06T08:55:59.813Z,9.27
2023-05-06T08:58:29.752Z,8.43
2023-05-06T09:00:58.519Z,7.30
2023-05-06T09:03:27.080Z,8.32
2023-05-06T09:05:55.461Z,9.25
2023-05-06T09:08:23.820Z,10.27
2023-05-06T09:10:52.086Z,10.57
2023-05-06T09:13:20.807Z,10.40
2023-05-06T09:15:51.114Z,12.00
2023-05-06T09:18:21.745Z,10.00
2023-05-06T09:20:50.490Z,8.23
2023-05-06T09:23:28.826Z,9.07
2023-05-06T09:26:03.475Z,10.43
2023-05-06T09:28:37.098Z,12.55
2023-05-06T09:31:06.914Z,11.73
2023-05-06T09:33:37.764Z,8.48
2023-05-06T09:36:07.000Z,8.60
2023-05-06T09:38:40.082Z,10.63
2023-05-06T09:41:08.727Z,12.35
2023-05-06T09:43:37.396Z,8.60
2023-05-06T09:46:07.726Z,8.68
2023-05-06T09:48:36.284Z,8.48
2023-05-06T09:51:05.356Z,10.20
2023-05-06T09:53:37.531Z,10.20
2023-05-06T09:56:06.642Z,6.43
2023-05-06T09:58:35.715Z,8.30
2023-05-06T10:01:05.022Z,12.23
2023-05-06T10:03:35.216Z,9.80
2023-05-06T10:06:07.137Z,9.40
2023-05-06T10:08:36.041Z,9.82
2023-05-06T10:11:04.350Z,8.90
2023-05-06T10:13:32.721Z,9.38
2023-05-06T10:16:02.900Z,10.93
2023-05-06T10:18:32.032Z,9.73
2023-05-06T10:21:01.925Z,10.52
2023-05-06T10:23:35.444Z,10.18
2023-05-06T10:26:07.766Z,11.20
2023-05-06T10:28:41.201Z,10.13
2023-05-06T10:31:12.664Z,12.45
2023-05-06T10:33:44.166Z,8.90
2023-05-06T10:36:18.241Z,10.60
2023-05-06T10:38:54.770Z,9.18
2023-05-06T10:41:23.666Z,9.90
2023-05-06T10:43:56.880Z,11.55
2023-05-06T10:46:26.196Z,10.02
2023-05-06T10:49:18.490Z,9.77
2023-05-06T10:52:22.031Z,7.65
2023-05-06T10:54:51.263Z,6.85
2023-05-06T10:57:26.696Z,5.70
2023-05-06T10:59:58.612Z,6.93
2023-05-06T11:02:26.951Z,7.45
2023-05-06T11:05:02.226Z,10.00
2023-05-06T11:07:31.903Z,7.47
2023-05-06T11:10:01.290Z,8.52
2023-05-06T11:12:50.705Z,8.52
2023-05-06T11:15:26.133Z,7.35
2023-05-06T11:17:59.855Z,4.82
2023-05-06T11:20:30.822Z,17.45
2023-05-06T11:23:01.054Z,6.68
2023-05-06T11:25:41.124Z,5.45
2023-05-06T11:28:10.231Z,7.50
2023-05-06T11:30:39.135Z,6.15
2023-05-06T11:33:10.838Z,4.53
2023-05-06T11:35:39.660Z,7.88
2023-05-06T11:38:09.328Z,6.45
2023-05-06T11:40:37.675Z,5.88
2023-05-06T11:43:12.646Z,5.38
2023-05-06T11:45:44.701Z,5.40
2023-05-06T11:48:13.519Z,9.10
2023-05-06T11:50:46.294Z,6.57
2023-05-06T11:53:19.102Z,4.30
2023-05-06T11:55:49.233Z,5.57
2023-05-06T11:58:18.109Z,5.78
2023-05-06T12:00:49.682Z,7.30
2023-05-06T12:03:19.576Z,4.85
2023-05-06T12:05:48.990Z,6.75
2023-05-06T12:08:27.234Z,4.45
2023-05-06T12:10:57.280Z,5.05
2023-05-06T12:13:25.731Z,6.00
2023-05-06T12:15:55.778Z,5.47
2023-05-06T12:18:26.660Z,5.15
2023-05-06T12:20:57.677Z,5.68
2023-05-06T12:23:27.401Z,5.55
2023-05-06T12:26:08.311Z,7.70
2023-05-06T12:28:42.654Z,5.50
2023-05-06T12:31:20.880Z,5.55
2023-05-06T12:33:53.046Z,4.78
2023-05-06T12:36:22.385Z,5.10
2023-05-06T12:38:55.604Z,4.72
2023-05-06T12:41:24.755Z,3.58
2023-05-06T12:43:53.421Z,4.85
2023-05-06T12:46:24.412Z,4.72
2023-05-06T12:48:59.857Z,6.20
2023-05-06T12:51:28.856Z,3.88
2023-05-06T12:54:04.747Z,5.95
2023-05-06T12:56:33.106Z,6.65
2023-05-06T12:59:04.678Z,6.18
2023-05-06T13:01:33.251Z,5.90
2023-05-06T13:04:01.783Z,4.63
2023-05-06T13:06:32.582Z,8.90
2023-05-06T13:09:02.240Z,6.97
2023-05-06T13:11:30.656Z,7.40
2023-05-06T13:13:59.564Z,7.00
2023-05-06T13:16:30.221Z,9.23
2023-05-06T13:18:58.740Z,5.75
2023-05-06T13:21:27.113Z,6.07
2023-05-06T13:23:55.476Z,4.88
2023-05-06T13:26:25.219Z,7.50
2023-05-06T13:29:02.856Z,5.43
2023-05-06T13:31:31.594Z,6.07
2023-05-06T13:34:00.125Z,4.78
2023-05-06T13:36:28.695Z,3.97
2023-05-06T13:38:57.186Z,6.30
2023-05-06T13:41:31.968Z,6.55
2023-05-06T13:44:02.687Z,4.13
2023-05-06T13:46:31.375Z,3.60
2023-05-06T13:48:59.858Z,5.25
2023-05-06T13:51:30.734Z,6.20
2023-05-06T13:54:01.512Z,8.38
2023-05-06T13:56:31.572Z,6.20
2023-05-06T13:58:59.845Z,6.75
2023-05-06T14:01:31.013Z,4.55
2023-05-06T14:04:00.062Z,3.72
2023-05-06T14:06:31.073Z,7.32
2023-05-06T14:09:01.745Z,4.63
2023-05-06T14:11:36.338Z,3.88
2023-05-06T14:14:04.663Z,5.72
2023-05-06T14:16:33.115Z,3.83
2023-05-06T14:19:04.858Z,5.32
2023-05-06T14:21:33.147Z,2.17
2023-05-06T14:24:01.678Z,4.78
2023-05-06T14:26:31.666Z,5.65
2023-05-06T14:29:02.501Z,4.22
2023-05-06T14:31:33.396Z,2.85
2023-05-06T14:34:03.480Z,3.00
2023-05-06T14:36:31.809Z,2.22
2023-05-06T14:39:00.105Z,2.63
2023-05-06T14:41:28.755Z,3.13
2023-05-06T14:43:58.588Z,3.85
2023-05-06T14:46:29.333Z,2.85
2023-05-06T14:49:00.769Z,5.03
2023-05-06T14:51:29.024Z,4.30
2023-05-06T14:53:59.816Z,5.18
2023-05-06T14:56:32.857Z,1.85
2023-05-06T14:59:03.982Z,5.57
2023-05-06T15:01:35.938Z,2.55
2023-05-06T15:04:07.001Z,2.95
2023-05-06T15:06:35.577Z,3.83
2023-05-06T15:09:06.273Z,3.92
2023-05-06T15:11:34.886Z,2.05
2023-05-06T15:14:04.571Z,2.65
2023-05-06T15:16:33.126Z,2.53
2023-05-06T15:19:01.686Z,3.83
2023-05-06T15:21:32.346Z,3.60
2023-05-06T15:24:05.583Z,6.35
2023-05-06T15:26:33.944Z,2.80
2023-05-06T15:29:02.594Z,1.25
2023-05-06T15:31:33.621Z,4.22
2023-05-06T15:34:02.013Z,3.70
2023-05-06T15:36:32.760Z,2.10
2023-05-06T15:39:06.317Z,3.75
2023-05-06T15:41:35.533Z,3.97
2023-05-06T15:44:06.091Z,3.25
2023-05-06T15:46:40.643Z,3.90
2023-05-06T15:49:39.634Z,4.28
2023-05-06T15:52:04.148Z,5.10
2023-05-06T15:54:37.546Z,2.80
2023-05-06T15:57:07.013Z,2.72
2023-05-06T15:59:35.783Z,4.45
2023-05-06T16:04:39.544Z,4.82
2023-05-06T16:07:08.410Z,2.40
2023-05-06T16:09:37.084Z,2.92
2023-05-06T16:12:05.819Z,4.88
2023-05-06T16:14:35.107Z,4.22
2023-05-06T16:17:04.741Z,3.13
2023-05-06T16:19:35.005Z,3.55
2023-05-06T16:22:03.812Z,5.10
2023-05-06T16:24:32.137Z,2.85
2023-05-06T16:27:02.964Z,3.53
2023-05-06T16:29:31.653Z,3.17
2023-05-06T16:32:00.012Z,4.53
2023-05-06T16:34:41.373Z,2.30
2023-05-06T16:37:14.585Z,3.95
2023-05-06T16:39:43.148Z,2.67
2023-05-06T16:42:11.485Z,5.40
2023-05-06T16:44:39.753Z,2.30
2023-05-06T16:47:08.282Z,6.00
2023-05-06T16:49:37.977Z,2.80
2023-05-06T16:52:06.256Z,2.67
2023-05-06T16:54:41.707Z,2.25
2023-05-06T16:57:12.516Z,5.40
2023-05-06T16:59:40.839Z,3.13
2023-05-06T17:02:09.111Z,7.60
2023-05-06T17:04:38.853Z,10.35
2023-05-06T17:07:07.195Z,4.15
2023-05-06T17:09:35.356Z,7.18
2023-05-06T17:12:03.857Z,6.55
2023-05-06T17:14:32.349Z,5.97
2023-05-06T17:17:05.262Z,4.40
2023-05-06T17:19:34.025Z,4.40
2023-05-06T17:22:03.726Z,4.93
2023-05-06T17:24:36.347Z,4.55
2023-05-06T17:27:04.802Z,5.00
2023-05-06T17:29:35.802Z,5.00
2023-05-06T17:32:04.903Z,5.28
2023-05-06T17:34:35.396Z,7.05
2023-05-06T17:37:05.492Z,6.53
2023-05-06T17:39:34.021Z,5.60
2023-05-06T17:42:02.814Z,7.20
2023-05-06T17:44:31.618Z,4.70
2023-05-06T17:47:00.060Z,5.45
2023-05-06T17:49:28.561Z,9.30
2023-05-06T17:51:58.144Z,3.83
2023-05-06T17:54:38.410Z,7.78
2023-05-06T17:57:09.180Z,5.20
2023-05-06T17:59:41.738Z,5.32
2023-05-06T18:02:13.991Z,6.93
2023-05-06T18:04:42.437Z,6.38
2023-05-06T18:07:15.781Z,5.70
2023-05-06T18:09:51.985Z,4.13
2023-05-06T18:12:20.355Z,6.07
2023-05-06T18:14:49.698Z,5.45
2023-05-06T18:17:18.145Z,6.80
2023-05-06T18:19:46.564Z,7.18
2023-05-06T18:22:19.540Z,5.22
2023-05-06T18:24:55.311Z,6.57
2023-05-06T18:27:25.489Z,7.43
2023-05-06T18:29:54.069Z,6.95
2023-05-06T18:32:27.140Z,7.20
2023-05-06T18:34:55.590Z,7.47
2023-05-06T18:37:23.854Z,6.35
2023-05-06T18:39:53.677Z,6.85
2023-05-06T18:42:22.865Z,4.95
2023-05-06T18:44:51.356Z,7.60
2023-05-06T18:47:20.374Z,8.23
2023-05-06T18:49:48.781Z,8.30
2023-05-06T18:52:17.843Z,7.00
2023-05-06T18:54:46.437Z,6.65
2023-05-06T18:57:16.306Z,6.43
2023-05-06T18:59:44.560Z,8.07
2023-05-06T19:02:15.545Z,6.65
2023-05-06T19:04:43.908Z,7.72
2023-05-06T19:07:14.342Z,8.52
2023-05-06T19:09:44.173Z,8.50
2023-05-06T19:12:12.569Z,7.53
2023-05-06T19:14:44.503Z,9.38
2023-05-06T19:17:13.152Z,7.18
2023-05-06T19:19:49.107Z,6.97
2023-05-06T19:22:22.466Z,7.10
2023-05-06T19:24:53.113Z,10.13
2023-05-06T19:27:21.519Z,8.68
2023-05-06T19:29:51.155Z,5.53
2023-05-06T19:32:20.921Z,7.53
2023-05-06T19:34:59.225Z,13.80
2023-05-06T19:37:30.099Z,6.03
2023-05-06T19:39:58.642Z,7.47
2023-05-06T19:42:26.835Z,9.30
2023-05-06T19:44:58.757Z,6.88
2023-05-06T19:47:31.105Z,8.70
2023-05-06T19:49:59.746Z,8.90
2023-05-06T19:52:30.524Z,7.97
2023-05-06T19:54:59.042Z,10.02
2023-05-06T19:57:29.763Z,9.90
2023-05-06T19:59:59.825Z,13.52
2023-05-06T20:02:31.476Z,12.48
2023-05-06T20:05:06.478Z,13.63
2023-05-06T20:07:42.135Z,14.25
2023-05-06T20:10:13.688Z,14.57
2023-05-06T20:12:42.359Z,15.35
2023-05-06T20:15:14.772Z,15.55
2023-05-06T20:17:45.353Z,14.40
2023-05-06T20:20:13.876Z,14.48
2023-05-06T20:22:46.627Z,13.45
2023-05-06T20:25:16.192Z,13.38
2023-05-06T20:27:44.613Z,13.68
2023-05-06T20:30:16.938Z,14.82
2023-05-06T20:32:48.291Z,14.40
2023-05-06T20:35:17.845Z,14.35
2023-05-06T20:37:46.881Z,14.50
2023-05-06T20:40:15.841Z,12.32
2023-05-06T20:42:44.332Z,12.93
2023-05-06T20:45:14.270Z,11.75
2023-05-06T20:47:42.795Z,12.65
2023-05-06T20:50:17.065Z,12.45
2023-05-06T20:52:46.048Z,15.73
2023-05-06T20:55:15.208Z,14.48
2023-05-06T20:57:44.295Z,14.15
2023-05-06T21:00:14.730Z,14.63
2023-05-06T21:02:43.401Z,14.82
2023-05-06T21:05:12.287Z,13.45
2023-05-06T21:07:40.932Z,13.80
2023-05-06T21:10:09.758Z,17.63
2023-05-06T21:12:38.184Z,12.55
2023-05-06T21:15:07.080Z,14.23
2023-05-06T21:17:36.965Z,15.52
2023-05-06T21:20:06.294Z,13.73
2023-05-06T21:22:37.075Z,15.90
2023-05-06T21:25:06.263Z,17.95
2023-05-06T21:27:34.568Z,17.30
2023-05-06T21:30:03.251Z,18.08
2023-05-06T21:32:34.400Z,15.10
2023-05-06T21:35:06.992Z,17.80
2023-05-06T21:37:37.999Z,16.08
2023-05-06T21:40:06.827Z,14.88
2023-05-06T21:42:35.140Z,15.45
2023-05-06T21:45:03.782Z,20.80
2023-05-06T21:47:32.356Z,17.30
2023-05-06T21:50:00.802Z,18.65
2023-05-06T21:52:30.852Z,14.70
2023-05-06T21:54:59.422Z,18.27
2023-05-06T21:57:27.680Z,16.98
2023-05-06T21:59:56.117Z,22.13
2023-05-06T22:02:24.501Z,18.00
2023-05-06T22:04:52.792Z,15.93
2023-05-06T22:07:21.247Z,18.55
2023-05-06T22:09:55.457Z,14.68
2023-05-06T22:12:23.918Z,14.35
2023-05-06T22:14:52.254Z,19.50
2023-05-06T22:17:20.589Z,17.95
2023-05-06T22:19:49.096Z,18.42
2023-05-06T22:22:18.083Z,14.90
2023-05-06T22:24:49.118Z,14.75
2023-05-06T22:27:18.784Z,21.27
2023-05-06T22:29:47.082Z,16.85
2023-05-06T22:32:17.434Z,18.23
2023-05-06T22:34:45.855Z,15.38
2023-05-06T22:37:16.541Z,18.55
2023-05-06T22:39:44.983Z,20.10
2023-05-06T22:42:13.369Z,13.82
2023-05-06T22:44:42.981Z,19.33
2023-05-06T22:47:11.557Z,15.95
2023-05-06T22:49:42.404Z,16.13
2023-05-06T22:52:19.108Z,12.57
2023-05-06T22:54:47.511Z,14.48
2023-05-06T22:57:15.938Z,14.48
2023-05-06T22:59:45.575Z,13.65
2023-05-06T23:02:14.027Z,13.75
2023-05-06T23:04:42.393Z,12.18
2023-05-06T23:07:15.652Z,16.90
2023-05-06T23:09:46.752Z,14.80
2023-05-06T23:12:15.044Z,11.07
2023-05-06T23:14:43.296Z,12.10
2023-05-06T23:17:15.621Z,14.48
2023-05-06T23:19:44.220Z,12.10
2023-05-06T23:22:14.292Z,13.55
2023-05-06T23:24:42.731Z,11.20
2023-05-06T23:27:11.312Z,14.25
2023-05-06T23:29:41.940Z,12.52
2023-05-06T23:32:14.822Z,12.35
2023-05-06T23:34:46.988Z,13.52
2023-05-06T23:37:16.108Z,10.32
2023-05-06T23:39:44.523Z,15.00
2023-05-06T23:42:12.773Z,12.45
2023-05-06T23:44:41.054Z,11.93
2023-05-06T23:47:11.986Z,12.00
2023-05-06T23:49:40.293Z,14.57
2023-05-06T23:52:14.479Z,13.65
2023-05-06T23:54:42.913Z,12.57
2023-05-06T23:57:18.137Z,13.20
2023-05-06T23:59:48.791Z,13.68
